Wednesday, June 20, 2018, 10:29 PM GMT
Back to Local

CYGP, Gaspe, Que.

Location: , , Canada Lat: 48.767
Local Time: 10:29 PM GMT (22:29 GMT) Lon: -64.483
Time Zone: GMT Elev: 108 ft

Show me the last for .
Show Decoded

2018-06-20 22:00 METAR CYGP 202200Z 12006KT 070V150 15SM FEW020 SCT034 BKN110 17/10 A2945 RMK
                 CU2SC2AC1 SLP976 DENSITY ALT 1000FT =
2018-06-20 21:44 METAR CYGP 202144Z 12011KT 110V180 15SM FEW020 BKN035 BKN250 18/10 A2945 RMK
                 CU2SC4CI1 CI TR SLP974 DENSITY ALT 1000FT =
2018-06-20 21:18 METAR CYGP 202118Z 11011KT 15SM BKN025TCU 19/11 A2944 RMK TCU5 WSHFT 2102 SLP971
                 DENSITY ALT 1100FT =
2018-06-20 21:00 METAR CYGP 202100Z 20003KT 190V260 15SM BKN025TCU 23/10 A2943 RMK TCU5 TCU S
                 SLP968 DENSITY ALT 1700FT =
2018-06-20 20:31 METAR CYGP 202031Z 26010G15KT 15SM SCT025TCU 23/11 A2943 RMK TCU3 TCU SW SLP967
                 DENSITY ALT 1700FT =
2018-06-20 20:00 METAR CYGP 202000Z 23013G20KT 15SM SCT060 BKN120 BKN260 22/10 A2944 RMK
                 SC4AC2CI1 CI TR SLP972 DENSITY ALT 1600FT =
2018-06-20 19:00 METAR CYGP 201900Z 24015G23KT 15SM SCT022 BKN054 BKN260 BKN270 24/11 A2944 RMK
                 CU3AC2CC1CI1 CC TR CI TR SLP971 DENSITY ALT 1700FT =
2018-06-20 18:00 METAR CYGP 201800Z 27009G19KT 15SM SCT060 BKN076 21/11 A2946 RMK SC4AC3 SLP977
                 DENSITY ALT 1400FT =
2018-06-20 17:00 METAR CYGP 201700Z 25014G22KT 200V280 14SM SCT042 BKN098 21/12 A2946 RMK SC4AC2
                 SLP978 DENSITY ALT 1400FT =
2018-06-20 16:22 METAR CYGP 201622Z 27007KT 240V310 15SM BKN027 BKN095 17/13 A2948 RMK SC6AC1
                 SLP985 DENSITY ALT 1000FT =
2018-06-20 16:02 METAR CYGP 201602Z 26011G18KT 15SM -RA BKN030 OVC077 18/11 A2949 RMK SC6AC2
                 SLP988 DENSITY ALT 1100FT =
2018-06-20 16:00 METAR CYGP 201600Z 25012G18KT 15SM BKN030 OVC077 19/11 A2949 RMK SC6AC2 SLP988
                 DENSITY ALT 1100FT =
2018-06-20 15:37 METAR CYGP 201537Z 29007KT 15SM SCT065 SCT080 BKN140 BKN220 18/12 A2948 RMK
                 SC3AC1AC2CI1 SLP986 DENSITY ALT 1000FT =
2018-06-20 15:00 METAR CYGP 201500Z 00000KT 15SM -RA FEW035 BKN065 OVC080 15/11 A2950 RMK
                 CU1SC5AC2 SLP993 DENSITY ALT 600FT =
2018-06-20 14:11 METAR CYGP 201411Z 09005KT 15SM -RA FEW030 BKN065 BKN180 15/09 A2952 RMK
                 CU1SC5AC2 CU TR SLP000 DENSITY ALT 600FT =
2018-06-20 14:00 METAR CYGP 201400Z 09004KT 15SM FEW030 BKN065 BKN180 15/09 A2953 RMK CU1SC5AC2
                 CU TR SLP001 DENSITY ALT 600FT =
2018-06-20 13:00 METAR CYGP 201300Z 13003KT 050V160 15SM FEW040 SCT100 BKN140 BKN220 14/08 A2955
                 RMK CU1AC3AC4CI1 CU TR CI TR SLP008 DENSITY ALT 500FT =
2018-06-20 12:00 METAR CYGP 201200Z 10006KT 15SM SCT160 BKN180 13/08 A2956 RMK AC4AS3 SLP011
                 DENSITY ALT 400FT =
2018-06-20 11:00 METAR CYGP 201100Z 27004KT 15SM FEW190 BKN220 14/07 A2957 RMK AC1CI4 SLP015
                 DENSITY ALT 400FT =
2018-06-20 10:00 METAR CYGP 201000Z 30006KT 15SM FEW190 SCT240 13/06 A2958 RMK AC1CI3 SLP020
                 DENSITY ALT 300FT =
2018-06-20 09:00 METAR CYGP 200900Z 30006KT 15SM SCT250 11/05 A2959 RMK CC4 SLP024 =
2018-06-20 08:00 METAR CYGP 200800Z 28009KT 15SM FEW160 11/05 A2961 RMK AC2 SLP028 =
2018-06-20 07:00 METAR CYGP 200700Z 29008KT 15SM SCT220 11/05 A2959 RMK CI3 SLP023 =
2018-06-20 06:00 METAR CYGP 200600Z 28006KT 15SM SKC 11/05 A2960 RMK SLP025 =
2018-06-20 05:00 METAR CYGP 200500Z 29007KT 15SM SKC 12/05 A2959 RMK SLP023 =
2018-06-20 04:00 METAR CYGP 200400Z 30007KT 15SM SKC 12/05 A2958 RMK SLP020 DENSITY ALT 200FT =
2018-06-20 03:00 METAR CYGP 200300Z 30008KT 15SM FEW049 13/05 A2957 RMK SC1 SLP017 DENSITY ALT
                 400FT =
2018-06-20 02:00 METAR CYGP 200200Z 29008G18KT 15SM BKN057 14/06 A2957 RMK SC6 SLP017 DENSITY ALT
                 500FT =
2018-06-20 01:00 METAR CYGP 200100Z 28009KT 15SM FEW045 13/06 A2956 RMK SC1 SLP011 DENSITY ALT
                 400FT =
2018-06-20 00:00 METAR CYGP 200000Z 28008KT 15SM BKN059 15/06 A2954 RMK SC5 SLP004 DENSITY ALT
                 600FT =
2018-06-19 23:00 METAR CYGP 192300Z 30013G18KT 15SM BKN058 15/06 A2952 RMK SC6 SLP000 DENSITY ALT
                 600FT =

Support USWX by starting your Amazon purchase here.